Joint Base McGuire-Dix-Lakehurst, New Jersey
Current Conditions -  °F | °C
As of 10:58 AM on Saturday 25 Oct 2014 (Local Time) from KWRI Reporting Station
Haze Haze  
Wind Chill: 61°   Ceiling: Unl
Heat Index: 61°   Visibility: 3mi
Dew Point: 40°   Wind: 8mph
Humidity: 45%   Direction: 300°WNW
Pressure: 29.86"   Gusts: NA
Location:  40.01°N, 74.52°W
Report Text: KWRI 251458Z AUTO 30007KT 3SM HZ CLR 16/04 A2986 RMK AO2 SLP115 T01630044 58008 $
Loading
Personal Weather Stations






























Interactive Weather Map
Tropical Storm Tracking
New forecast layout! Learn more

10-Day Weather Forecast

Advertisements
Track Severe Weather on mobile